createdAt,value
2018-07-23T00:00:07.168Z,19.80
2018-07-23T00:05:11.247Z,19.66
2018-07-23T00:10:14.786Z,19.63
2018-07-23T00:15:18.376Z,19.51
2018-07-23T00:20:22.594Z,19.31
2018-07-23T00:25:26.256Z,19.35
2018-07-23T00:30:31.187Z,19.31
2018-07-23T00:35:34.748Z,19.29
2018-07-23T00:40:38.365Z,19.28
2018-07-23T00:45:41.954Z,19.17
2018-07-23T00:50:45.780Z,19.08
2018-07-23T00:55:50.080Z,19.06
2018-07-23T01:00:54.366Z,18.87
2018-07-23T01:05:57.982Z,18.68
2018-07-23T01:11:02.377Z,18.70
2018-07-23T01:16:06.333Z,18.74
2018-07-23T01:21:10.028Z,18.75
2018-07-23T01:26:13.594Z,18.67
2018-07-23T01:31:17.286Z,18.71
2018-07-23T01:36:20.766Z,18.69
2018-07-23T01:41:24.329Z,18.62
2018-07-23T01:46:27.950Z,18.55
2018-07-23T01:51:31.480Z,18.50
2018-07-23T01:56:35.189Z,18.45
2018-07-23T02:01:40.044Z,18.32
2018-07-23T02:06:43.671Z,18.23
2018-07-23T02:11:47.267Z,18.13
2018-07-23T02:16:51.600Z,18.13
2018-07-23T02:21:56.023Z,18.06
2018-07-23T02:26:59.576Z,17.94
2018-07-23T02:32:03.121Z,17.86
2018-07-23T02:37:06.789Z,17.88
2018-07-23T02:42:10.380Z,17.89
2018-07-23T02:47:13.999Z,17.85
2018-07-23T02:52:17.574Z,17.80
2018-07-23T02:57:21.567Z,17.70
2018-07-23T03:02:25.127Z,17.64
2018-07-23T03:07:28.716Z,17.64
2018-07-23T03:12:32.610Z,17.55
2018-07-23T03:17:36.122Z,17.50
2018-07-23T03:22:40.803Z,17.44
2018-07-23T03:27:44.432Z,17.36
2018-07-23T03:32:48.578Z,17.27
2018-07-23T03:37:52.108Z,17.12
2018-07-23T03:42:55.700Z,17.27
2018-07-23T03:48:00.091Z,17.47
2018-07-23T03:53:03.783Z,17.61
2018-07-23T03:58:07.333Z,17.74
2018-07-23T04:03:10.876Z,17.88
2018-07-23T04:08:14.438Z,17.94
2018-07-23T04:13:17.996Z,17.96
2018-07-23T04:18:21.492Z,18.02
2018-07-23T04:23:25.197Z,18.13
2018-07-23T04:28:28.904Z,18.21
2018-07-23T04:33:32.544Z,18.28
2018-07-23T04:38:36.026Z,18.26
2018-07-23T04:43:39.893Z,18.27
2018-07-23T04:48:43.531Z,18.61
2018-07-23T04:53:47.090Z,19.60
2018-07-23T04:58:50.616Z,20.88
2018-07-23T05:03:54.549Z,22.01
2018-07-23T05:08:58.077Z,22.61
2018-07-23T05:14:02.048Z,23.07
2018-07-23T05:19:05.513Z,23.16
2018-07-23T05:24:09.962Z,21.99
2018-07-23T05:29:13.437Z,20.74
2018-07-23T05:34:17.033Z,20.25
2018-07-23T05:39:21.111Z,19.97
2018-07-23T05:44:24.649Z,19.77
2018-07-23T05:49:28.944Z,19.78
2018-07-23T05:54:32.544Z,20.06
2018-07-23T05:59:36.515Z,20.36
2018-07-23T06:04:40.930Z,20.41
2018-07-23T06:09:44.403Z,20.38
2018-07-23T06:14:47.978Z,20.27
2018-07-23T06:19:51.469Z,20.36
2018-07-23T06:24:55.205Z,20.60
2018-07-23T06:29:58.701Z,20.73
2018-07-23T06:35:02.335Z,20.85
2018-07-23T06:40:07.809Z,21.04
2018-07-23T06:45:11.361Z,21.22
2018-07-23T06:50:15.653Z,21.35
2018-07-23T06:55:19.221Z,21.46
2018-07-23T07:00:22.715Z,21.67
2018-07-23T07:05:27.589Z,21.86
2018-07-23T07:10:31.547Z,22.03
2018-07-23T07:15:35.476Z,22.32
2018-07-23T07:20:39.030Z,22.43
2018-07-23T07:25:42.604Z,22.52
2018-07-23T07:30:46.595Z,22.72
2018-07-23T07:35:50.239Z,22.65
2018-07-23T07:40:53.760Z,22.80
2018-07-23T07:45:57.781Z,22.74
2018-07-23T07:51:01.259Z,22.92
2018-07-23T07:56:05.845Z,23.20
2018-07-23T08:01:09.512Z,23.42
2018-07-23T08:06:13.134Z,23.55
2018-07-23T08:11:16.761Z,23.62
2018-07-23T08:16:20.312Z,23.90
2018-07-23T08:21:24.124Z,24.16
2018-07-23T08:26:28.112Z,24.17
2018-07-23T08:31:31.874Z,24.07
2018-07-23T08:36:35.869Z,24.20
2018-07-23T08:41:39.478Z,24.54
2018-07-23T08:46:43.125Z,24.53
2018-07-23T08:51:46.743Z,24.68
2018-07-23T08:56:51.792Z,24.90
2018-07-23T09:01:55.278Z,24.97
2018-07-23T09:06:59.809Z,25.24
2018-07-23T09:12:03.305Z,25.29
2018-07-23T09:17:06.846Z,25.46
2018-07-23T09:22:10.460Z,25.74
2018-07-23T09:27:13.957Z,25.82
2018-07-23T09:32:17.442Z,25.86
2018-07-23T09:37:21.671Z,26.02
2018-07-23T09:42:25.146Z,26.19
2018-07-23T09:47:28.754Z,26.42
2018-07-23T09:52:32.232Z,26.41
2018-07-23T09:57:35.871Z,26.40
2018-07-23T10:02:39.396Z,26.38
2018-07-23T10:07:42.956Z,26.55
2018-07-23T10:12:46.403Z,26.62
2018-07-23T10:17:50.064Z,26.62
2018-07-23T10:22:53.584Z,26.98
2018-07-23T10:27:57.109Z,27.01
2018-07-23T10:33:00.774Z,27.30
2018-07-23T10:38:05.337Z,27.53
2018-07-23T10:43:09.685Z,27.62
2018-07-23T10:48:14.106Z,27.38
2018-07-23T10:53:18.055Z,27.63
2018-07-23T10:58:21.870Z,27.59
2018-07-23T11:03:25.622Z,27.75
2018-07-23T11:08:29.333Z,27.76
2018-07-23T11:13:32.837Z,28.02
2018-07-23T11:18:37.435Z,28.24
2018-07-23T11:23:41.016Z,28.00
2018-07-23T11:28:44.675Z,27.87
2018-07-23T11:33:48.291Z,27.78
2018-07-23T11:38:51.899Z,27.96
2018-07-23T11:43:55.390Z,28.06
2018-07-23T11:48:58.950Z,28.36
2018-07-23T11:54:02.661Z,28.58
2018-07-23T11:59:06.309Z,28.52
2018-07-23T12:04:10.733Z,28.37
2018-07-23T12:09:13.970Z,28.30
2018-07-23T12:14:17.541Z,28.52
2018-07-23T12:19:21.101Z,28.63
2018-07-23T12:24:24.784Z,28.56
2018-07-23T12:29:28.537Z,28.54
2018-07-23T12:34:32.182Z,28.49
2018-07-23T12:39:35.742Z,28.71
2018-07-23T12:44:39.255Z,28.84
2018-07-23T12:49:42.909Z,28.88
2018-07-23T12:54:46.349Z,29.09
2018-07-23T12:59:50.017Z,29.26
2018-07-23T13:04:53.509Z,29.46
2018-07-23T13:09:57.068Z,29.39
2018-07-23T13:15:00.730Z,29.47
2018-07-23T13:20:05.025Z,29.41
2018-07-23T13:25:08.576Z,29.43
2018-07-23T13:30:16.670Z,29.21
2018-07-23T13:35:21.153Z,29.45
2018-07-23T13:40:24.706Z,29.68
2018-07-23T13:45:28.212Z,29.81
2018-07-23T13:50:31.809Z,29.70
2018-07-23T13:55:35.429Z,29.41
2018-07-23T14:00:39.303Z,29.62
2018-07-23T14:05:42.757Z,29.77
2018-07-23T14:10:46.646Z,29.60
2018-07-23T14:15:50.210Z,29.72
2018-07-23T14:20:53.887Z,29.82
2018-07-23T14:25:57.444Z,30.01
2018-07-23T14:31:00.945Z,30.08
2018-07-23T14:36:04.530Z,30.02
2018-07-23T14:41:08.036Z,29.96
2018-07-23T14:46:12.226Z,29.97
2018-07-23T14:51:15.797Z,30.19
2018-07-23T14:56:20.009Z,29.91
2018-07-23T15:01:23.501Z,30.15
2018-07-23T15:06:27.040Z,30.36
2018-07-23T15:11:30.522Z,30.02
2018-07-23T15:16:34.944Z,30.14
2018-07-23T15:21:38.474Z,30.26
2018-07-23T15:26:43.153Z,30.45
2018-07-23T15:31:46.618Z,29.67
2018-07-23T15:36:51.162Z,29.96
2018-07-23T15:41:55.181Z,29.99
2018-07-23T15:46:59.368Z,30.23
2018-07-23T15:52:02.885Z,30.27
2018-07-23T15:57:07.565Z,30.32
2018-07-23T16:02:11.505Z,30.08
2018-07-23T16:07:15.893Z,30.09
2018-07-23T16:12:19.389Z,30.21
2018-07-23T16:17:23.607Z,30.15
2018-07-23T16:22:27.392Z,29.93
2018-07-23T16:27:30.896Z,29.98
2018-07-23T16:32:34.677Z,29.99
2018-07-23T16:37:38.345Z,30.02
2018-07-23T16:42:42.336Z,29.63
2018-07-23T16:47:45.867Z,29.75
2018-07-23T16:52:49.930Z,30.55
2018-07-23T16:57:54.520Z,31.96
2018-07-23T17:02:58.625Z,32.09
2018-07-23T17:08:02.170Z,31.28
2018-07-23T17:13:05.684Z,31.25
2018-07-23T17:18:09.579Z,30.53
2018-07-23T17:23:12.903Z,30.51
2018-07-23T17:28:17.042Z,30.54
2018-07-23T17:33:20.629Z,30.70
2018-07-23T17:38:24.694Z,30.13
2018-07-23T17:43:28.201Z,29.64
2018-07-23T17:48:32.617Z,29.39
2018-07-23T17:53:36.200Z,29.47
2018-07-23T17:58:39.771Z,29.32
2018-07-23T18:03:43.247Z,29.31
2018-07-23T18:08:46.827Z,29.22
2018-07-23T18:13:50.278Z,29.18
2018-07-23T18:18:54.641Z,28.88
2018-07-23T18:23:58.095Z,28.74
2018-07-23T18:29:01.641Z,28.42
2018-07-23T18:34:05.120Z,28.05
2018-07-23T18:39:11.937Z,27.66
2018-07-23T18:44:15.427Z,27.54
2018-07-23T18:49:32.617Z,27.38
2018-07-23T18:54:36.730Z,27.21
2018-07-23T18:59:40.295Z,26.98
2018-07-23T19:04:43.728Z,26.80
2018-07-23T19:09:47.293Z,26.55
2018-07-23T19:14:50.761Z,26.40
2018-07-23T19:19:54.693Z,26.13
2018-07-23T19:24:58.724Z,25.95
2018-07-23T19:30:02.463Z,25.76
2018-07-23T19:35:06.404Z,25.60
2018-07-23T19:40:10.709Z,25.45
2018-07-23T19:45:15.096Z,25.27
2018-07-23T19:50:20.885Z,25.13
2018-07-23T19:55:24.470Z,24.97
2018-07-23T20:00:34.958Z,24.77
2018-07-23T20:05:39.597Z,24.67
2018-07-23T20:10:43.201Z,24.45
2018-07-23T20:15:47.081Z,24.38
2018-07-23T20:20:50.785Z,24.28
2018-07-23T20:25:54.362Z,24.14
2018-07-23T20:30:57.947Z,24.04
2018-07-23T20:36:02.112Z,23.88
2018-07-23T20:41:05.686Z,23.74
2018-07-23T20:46:09.340Z,23.74
2018-07-23T20:51:13.296Z,23.61
2018-07-23T20:56:16.826Z,23.54
2018-07-23T21:01:20.421Z,23.47
2018-07-23T21:06:24.134Z,23.29
2018-07-23T21:11:27.761Z,23.24
2018-07-23T21:16:32.717Z,23.09
2018-07-23T21:21:36.315Z,23.01
2018-07-23T21:26:39.916Z,22.91
2018-07-23T21:31:43.481Z,22.78
2018-07-23T21:36:47.125Z,22.72
2018-07-23T21:41:50.674Z,22.68
2018-07-23T21:46:54.249Z,22.50
2018-07-23T21:51:57.836Z,22.46
2018-07-23T21:57:01.363Z,22.43
2018-07-23T22:02:04.997Z,22.41
2018-07-23T22:07:08.601Z,22.29
2018-07-23T22:12:12.261Z,22.16
2018-07-23T22:17:15.768Z,21.95
2018-07-23T22:22:19.416Z,21.87
2018-07-23T22:27:22.964Z,21.94
2018-07-23T22:32:26.544Z,21.83
2018-07-23T22:37:30.145Z,21.82
2018-07-23T22:42:33.727Z,21.87
2018-07-23T22:47:37.256Z,21.77
2018-07-23T22:52:41.421Z,21.54
2018-07-23T22:57:44.981Z,21.52
2018-07-23T23:02:48.629Z,21.50
2018-07-23T23:07:52.216Z,21.41
2018-07-23T23:12:55.740Z,21.37
2018-07-23T23:18:01.471Z,20.85
2018-07-23T23:23:05.820Z,20.90
2018-07-23T23:28:09.296Z,21.04
2018-07-23T23:33:12.925Z,21.01
2018-07-23T23:38:16.572Z,21.00
2018-07-23T23:43:20.454Z,20.92
2018-07-23T23:48:24.356Z,20.91
2018-07-23T23:53:27.917Z,20.87
2018-07-23T23:58:31.403Z,20.83
